Time;durP1;ratioP1;P1;durP2;ratioP2;P2;SDS_P1;SDS_P2;PMS_P1;PMS_P2;Temp;Humidity;BMP_temperature;BMP_pressure;BME280_temperature;BME280_humidity;BME280_pressure;Samples;Min_cycle;Max_cycle;Signal;HPM_P1;HPM_P2
2021/09/24 00:00:35;;;;;;;6.00;1.95;;;;;;;14.01;74.02;99336.33;2156365;80;21031;-80
2021/09/24 00:03:37;;;;;;;5.12;1.60;;;;;;;13.89;74.30;99330.81;2160769;80;22177;-79
2021/09/24 00:06:42;;;;;;;3.22;1.70;;;;;;;13.77;74.30;99331.97;2156109;80;21025;-80
2021/09/24 00:09:44;;;;;;;6.22;1.60;;;;;;;13.64;75.36;99334.11;2157543;80;21038;-80
2021/09/24 00:12:45;;;;;;;7.22;2.20;;;;;;;13.55;75.25;99338.53;2157872;80;21373;-80
2021/09/24 00:15:47;;;;;;;7.72;1.70;;;;;;;13.43;75.67;99332.48;2159848;80;20990;-80
2021/09/24 00:18:49;;;;;;;3.85;1.77;;;;;;;13.40;75.55;99338.22;2161404;80;21082;-80
2021/09/24 00:21:50;;;;;;;5.00;1.67;;;;;;;13.34;75.52;99335.53;2154770;80;21462;-81
2021/09/24 00:24:52;;;;;;;4.75;1.50;;;;;;;13.30;76.15;99338.31;2160902;80;21026;-81
2021/09/24 00:27:53;;;;;;;3.50;1.80;;;;;;;13.25;76.00;99329.55;2158570;80;21454;-81
2021/09/24 00:30:54;;;;;;;5.12;1.87;;;;;;;13.25;76.18;99342.88;2161048;80;21570;-81
2021/09/24 00:33:56;;;;;;;4.28;1.85;;;;;;;13.23;76.80;99335.10;2160489;80;20994;-81
2021/09/24 00:36:58;;;;;;;4.75;1.82;;;;;;;13.22;76.83;99337.95;2168611;80;21049;-81
2021/09/24 00:39:59;;;;;;;5.15;1.90;;;;;;;13.22;77.32;99349.94;2162385;80;21036;-81
2021/09/24 00:43:02;;;;;;;4.50;1.75;;;;;;;13.22;76.82;99349.42;2154091;80;21031;-81
2021/09/24 00:46:04;;;;;;;6.97;2.00;;;;;;;13.22;77.09;99347.28;2159930;80;21023;-81
2021/09/24 00:49:06;;;;;;;5.90;1.90;;;;;;;13.21;77.30;99346.46;2159555;80;21518;-81
2021/09/24 00:52:08;;;;;;;5.47;1.65;;;;;;;13.19;76.77;99337.84;2160677;80;21006;-81
2021/09/24 00:55:11;;;;;;;6.28;1.82;;;;;;;13.17;77.06;99345.73;2160078;80;20962;-81
2021/09/24 00:58:13;;;;;;;3.50;1.67;;;;;;;13.13;76.69;99342.66;2157058;80;22378;-82
2021/09/24 01:01:14;;;;;;;5.20;1.60;;;;;;;13.09;76.97;99356.08;2147200;80;21459;-81
2021/09/24 01:04:16;;;;;;;6.08;2.20;;;;;;;13.06;76.42;99356.45;2151915;80;21096;-81
2021/09/24 01:07:18;;;;;;;6.17;1.70;;;;;;;13.01;76.21;99358.41;2147934;80;21024;-81
2021/09/24 01:10:20;;;;;;;3.62;1.52;;;;;;;12.97;76.43;99350.49;2151507;80;22290;-82
2021/09/24 01:13:21;;;;;;;5.35;2.05;;;;;;;12.95;76.36;99351.23;2157131;80;20961;-82
2021/09/24 01:16:23;;;;;;;7.50;2.25;;;;;;;12.93;76.13;99353.78;2149328;80;21010;-82
2021/09/24 01:19:27;;;;;;;6.87;2.17;;;;;;;12.91;75.87;99352.63;2150975;80;21640;-82
2021/09/24 01:22:28;;;;;;;5.20;1.50;;;;;;;12.87;76.33;99358.58;2155633;80;21080;-82
2021/09/24 01:25:30;;;;;;;4.00;1.60;;;;;;;12.85;76.01;99356.62;2149754;80;21493;-82
2021/09/24 01:28:32;;;;;;;8.08;2.00;;;;;;;12.80;75.76;99355.88;2151770;80;20994;-82
2021/09/24 01:31:33;;;;;;;7.75;1.82;;;;;;;12.77;75.76;99357.61;2152781;80;20971;-81
2021/09/24 01:34:35;;;;;;;3.90;1.75;;;;;;;12.72;75.74;99354.20;2149341;80;21449;-82
2021/09/24 01:37:36;;;;;;;8.48;2.30;;;;;;;12.69;75.79;99349.28;2152243;80;21085;-81
2021/09/24 01:40:38;;;;;;;8.18;1.80;;;;;;;12.68;75.58;99358.81;2152279;80;21073;-82
2021/09/24 01:43:39;;;;;;;9.43;2.00;;;;;;;12.64;75.76;99353.55;2160790;80;21603;-82
2021/09/24 01:46:44;;;;;;;7.62;2.42;;;;;;;12.63;75.68;99372.70;2148724;80;20987;-82
2021/09/24 01:49:46;;;;;;;8.85;1.95;;;;;;;12.65;75.40;99375.17;2154784;80;21045;-81
2021/09/24 01:52:47;;;;;;;9.40;1.87;;;;;;;12.64;75.18;99378.35;2155485;80;21436;-81
2021/09/24 01:55:50;;;;;;;5.37;2.00;;;;;;;12.65;75.08;99382.64;2154360;80;21045;-82
2021/09/24 01:58:51;;;;;;;9.15;2.08;;;;;;;12.68;74.78;99390.23;2159785;80;21044;-82
2021/09/24 02:01:53;;;;;;;11.22;2.45;;;;;;;12.70;74.60;99394.04;2162689;80;21041;-81
2021/09/24 02:04:54;;;;;;;8.88;2.22;;;;;;;12.69;74.36;99386.54;2155945;80;21017;-82
2021/09/24 02:07:55;;;;;;;12.28;2.52;;;;;;;12.69;74.20;99399.03;2160281;80;21007;-82
2021/09/24 02:10:57;;;;;;;9.88;2.42;;;;;;;12.65;74.04;99402.61;2151855;80;20997;-82
2021/09/24 02:13:58;;;;;;;10.03;2.65;;;;;;;12.65;74.01;99405.27;2158588;80;21015;-82
2021/09/24 02:17:00;;;;;;;5.12;2.20;;;;;;;12.67;73.95;99411.22;2162241;80;21647;-82
2021/09/24 02:20:03;;;;;;;8.73;2.20;;;;;;;12.67;73.89;99417.03;2160083;80;21000;-82
2021/09/24 02:23:05;;;;;;;12.80;2.65;;;;;;;12.69;73.83;99421.66;2154129;80;21029;-81
2021/09/24 02:26:06;;;;;;;6.37;2.30;;;;;;;12.69;73.73;99423.80;2160593;80;21045;-81
2021/09/24 02:29:08;;;;;;;9.25;2.20;;;;;;;12.68;73.62;99427.49;2154882;80;21063;-82
2021/09/24 02:32:10;;;;;;;12.88;2.70;;;;;;;12.70;73.49;99433.45;2165213;80;20971;-81
2021/09/24 02:35:12;;;;;;;10.53;2.58;;;;;;;12.69;73.33;99433.12;2164919;80;21048;-81
2021/09/24 02:38:13;;;;;;;11.45;2.55;;;;;;;12.68;73.17;99434.15;2164873;80;20950;-81
2021/09/24 02:41:15;;;;;;;11.20;2.40;;;;;;;12.66;72.96;99433.52;2159754;80;21003;-81
2021/09/24 02:44:17;;;;;;;8.13;2.95;;;;;;;12.65;72.78;99440.38;2158216;80;21407;-81
2021/09/24 02:47:18;;;;;;;14.47;3.30;;;;;;;12.67;72.68;99444.98;2158983;80;21052;-81
2021/09/24 02:50:20;;;;;;;15.50;2.65;;;;;;;12.65;72.69;99458.50;2166945;80;20972;-81
2021/09/24 02:53:22;;;;;;;14.63;2.70;;;;;;;12.63;71.68;99452.55;2163688;80;21265;-81
2021/09/24 02:56:23;;;;;;;13.30;2.20;;;;;;;12.65;70.94;99454.50;2156441;80;21019;-82
2021/09/24 02:59:25;;;;;;;14.40;2.85;;;;;;;12.66;70.81;99480.61;2139609;80;21042;-81
2021/09/24 03:02:26;;;;;;;12.55;2.42;;;;;;;12.63;70.31;99481.00;2126185;81;21033;-82
2021/09/24 03:05:28;;;;;;;12.68;3.02;;;;;;;12.62;70.32;99495.34;2134734;80;21010;-81
2021/09/24 03:08:29;;;;;;;14.95;3.20;;;;;;;12.56;69.43;99491.10;2131090;81;21022;-81
2021/09/24 03:11:31;;;;;;;16.25;2.72;;;;;;;12.52;69.56;99503.13;2127753;81;21106;-82
2021/09/24 03:14:32;;;;;;;13.70;2.67;;;;;;;12.49;68.73;99496.05;2135484;80;21073;-82
2021/09/24 03:17:34;;;;;;;13.53;2.83;;;;;;;12.45;68.88;99510.27;2132745;81;20944;-82
2021/09/24 03:20:36;;;;;;;10.98;3.00;;;;;;;12.43;68.37;99510.14;2131107;81;21077;-82
2021/09/24 03:23:38;;;;;;;12.28;2.85;;;;;;;12.39;68.13;99513.70;2130476;81;20960;-82
2021/09/24 03:26:39;;;;;;;16.73;2.85;;;;;;;12.38;68.34;99520.02;2126623;81;21034;-82
2021/09/24 03:29:41;;;;;;;15.40;2.85;;;;;;;12.33;67.72;99514.45;2128841;81;21008;-81
2021/09/24 03:32:44;;;;;;;15.68;3.22;;;;;;;12.29;67.37;99529.98;2132690;81;21010;-82
2021/09/24 03:35:46;;;;;;;20.43;4.12;;;;;;;12.28;67.65;99543.48;2129657;81;21526;-82
2021/09/24 03:38:47;;;;;;;13.78;3.05;;;;;;;12.26;67.55;99535.69;2133451;81;20931;-81
2021/09/24 03:41:49;;;;;;;19.27;3.15;;;;;;;12.23;67.10;99547.22;2128660;81;20980;-82
2021/09/24 03:44:51;;;;;;;13.98;4.05;;;;;;;12.20;67.19;99552.92;2135124;80;21029;-82
2021/09/24 03:47:53;;;;;;;14.90;3.20;;;;;;;12.16;67.33;99555.12;2132316;81;21026;-82
2021/09/24 03:50:54;;;;;;;18.32;3.22;;;;;;;12.13;67.13;99547.53;2125149;81;21015;-82
2021/09/24 03:53:56;;;;;;;15.18;3.52;;;;;;;12.05;66.99;99543.19;2138579;81;21013;-83
2021/09/24 03:56:58;;;;;;;13.45;3.05;;;;;;;12.08;66.55;99565.41;2131814;81;21431;-82
2021/09/24 03:59:59;;;;;;;11.70;3.15;;;;;;;12.07;66.61;99566.91;2119731;82;21056;-82
2021/09/24 04:03:01;;;;;;;18.90;3.72;;;;;;;12.06;66.50;99574.58;2117668;82;20990;-82
2021/09/24 04:06:02;;;;;;;11.78;2.67;;;;;;;12.03;66.42;99575.78;2112642;82;21512;-83
2021/09/24 04:09:04;;;;;;;9.23;2.90;;;;;;;12.00;66.21;99566.04;2115628;82;21082;-82
2021/09/24 04:12:07;;;;;;;19.60;3.17;;;;;;;11.97;65.97;99567.23;2116215;82;21018;-82
2021/09/24 04:15:10;;;;;;;19.90;2.67;;;;;;;11.96;65.72;99563.42;2115834;82;21026;-81
2021/09/24 04:18:12;;;;;;;18.30;3.60;;;;;;;11.83;65.98;99544.16;2113318;82;20983;-82
2021/09/24 04:21:13;;;;;;;22.73;4.58;;;;;;;11.92;66.09;99576.28;2107330;82;20996;-82
2021/09/24 04:24:15;;;;;;;18.40;2.83;;;;;;;11.90;66.04;99580.95;2117437;82;21500;-81
2021/09/24 04:27:17;;;;;;;12.50;2.95;;;;;;;11.89;66.04;99588.63;2119108;82;21061;-81
2021/09/24 04:30:18;;;;;;;19.70;3.70;;;;;;;11.82;66.01;99563.25;2119354;82;21043;-82
2021/09/24 04:33:20;;;;;;;14.38;3.17;;;;;;;11.88;66.06;99581.16;2118237;82;21061;-82
2021/09/24 04:36:21;;;;;;;19.25;4.00;;;;;;;11.87;66.20;99580.82;2116915;82;20943;-82
2021/09/24 04:39:23;;;;;;;15.48;3.27;;;;;;;11.86;66.25;99577.04;2115848;82;21010;-82
2021/09/24 04:42:25;;;;;;;18.30;3.65;;;;;;;11.85;66.34;99581.98;2118107;82;21820;-82
2021/09/24 04:45:26;;;;;;;15.38;3.00;;;;;;;11.82;66.19;99582.36;2111440;82;21567;-82
2021/09/24 04:48:31;;;;;;;15.23;3.10;;;;;;;11.80;66.20;99582.56;2115927;82;21013;-81
2021/09/24 04:51:31;;;;;;;16.80;3.37;;;;;;;11.80;66.20;99582.56;2108616;82;21109;-80
2021/09/24 04:54:33;;;;;;;12.90;3.25;;;;;;;11.80;66.62;99585.73;2124795;82;20964;-80
2021/09/24 04:57:35;;;;;;;15.70;3.25;;;;;;;11.70;66.63;99572.73;2113290;81;21140;-81
2021/09/24 05:00:38;;;;;;;20.27;3.87;;;;;;;11.77;66.84;99587.41;2156646;80;20976;-81
2021/09/24 05:03:40;;;;;;;12.20;2.77;;;;;;;11.77;66.82;99590.07;2160081;80;20964;-81
2021/09/24 05:06:42;;;;;;;21.27;4.17;;;;;;;11.78;67.11;99599.71;2158578;80;20998;-76
2021/09/24 05:09:43;;;;;;;20.23;2.72;;;;;;;11.78;67.11;99599.71;2160875;80;21064;-77
2021/09/24 05:12:45;;;;;;;12.20;3.22;;;;;;;11.79;67.15;99606.66;2158627;80;21073;-78
2021/09/24 05:15:47;;;;;;;22.15;2.90;;;;;;;11.78;67.18;99618.31;2158853;80;21536;-81
2021/09/24 05:18:48;;;;;;;17.25;2.80;;;;;;;11.80;67.39;99621.63;2163483;80;21049;-75
2021/09/24 05:21:50;;;;;;;20.77;4.55;;;;;;;11.80;67.39;99621.63;2154932;80;21012;-83
2021/09/24 05:24:52;;;;;;;16.52;3.25;;;;;;;11.72;67.58;99615.08;2163570;80;21048;-77
2021/09/24 05:27:53;;;;;;;15.48;3.65;;;;;;;11.79;68.03;99623.43;2163357;80;20998;-81
2021/09/24 05:30:55;;;;;;;15.23;2.67;;;;;;;11.80;68.49;99632.25;2160623;80;21513;-83
2021/09/24 05:33:57;;;;;;;17.65;3.33;;;;;;;11.80;68.49;99632.25;2159921;80;21002;-82
2021/09/24 05:36:58;;;;;;;14.10;3.08;;;;;;;11.80;68.19;99639.72;2156894;80;21073;-79
2021/09/24 05:40:00;;;;;;;16.52;3.58;;;;;;;11.71;68.45;99620.06;2157640;80;21003;-79
2021/09/24 05:43:01;;;;;;;18.07;3.27;;;;;;;11.85;68.42;99659.08;2162746;80;20974;-79
2021/09/24 05:46:03;;;;;;;13.32;2.62;;;;;;;11.85;68.42;99659.08;2165888;80;21041;-84
2021/09/24 05:49:05;;;;;;;20.27;3.00;;;;;;;11.81;68.12;99639.20;2157249;80;21535;-81
2021/09/24 05:52:08;;;;;;;11.48;2.75;;;;;;;11.90;68.19;99668.69;2161222;80;21108;-82
2021/09/24 05:55:12;;;;;;;16.30;4.37;;;;;;;11.93;68.20;99666.98;2161017;80;20936;-82
2021/09/24 05:58:14;;;;;;;16.45;3.52;;;;;;;11.96;68.16;99667.94;2163753;80;21026;-81
2021/09/24 06:01:15;;;;;;;12.63;3.02;;;;;;;12.01;68.27;99664.72;2161653;80;21471;-81
2021/09/24 06:04:19;;;;;;;17.27;3.33;;;;;;;12.05;68.04;99668.64;2157593;80;21068;-83
2021/09/24 06:07:20;;;;;;;13.55;3.33;;;;;;;11.98;67.95;99659.27;2154508;80;20979;-83
2021/09/24 06:10:22;;;;;;;14.70;3.15;;;;;;;12.07;67.95;99686.06;2157014;81;20943;-83
2021/09/24 06:13:23;;;;;;;19.57;3.40;;;;;;;12.09;67.87;99681.91;2158273;80;21030;-82
2021/09/24 06:16:25;;;;;;;19.73;4.08;;;;;;;12.10;67.99;99686.20;2150884;80;20962;-81
2021/09/24 06:19:26;;;;;;;18.27;3.02;;;;;;;12.10;67.78;99692.34;2159043;80;21003;-82
2021/09/24 06:22:28;;;;;;;16.23;3.52;;;;;;;12.11;67.67;99696.66;2159609;80;20949;-82
2021/09/24 06:25:30;;;;;;;12.40;2.70;;;;;;;12.13;67.51;99696.97;2157314;80;21064;-82
2021/09/24 06:28:31;;;;;;;17.98;3.45;;;;;;;12.15;67.61;99701.60;2164481;80;20997;-81
2021/09/24 06:31:33;;;;;;;12.93;3.08;;;;;;;12.16;67.56;99689.95;2160366;80;21025;-85
2021/09/24 06:34:35;;;;;;;20.27;3.15;;;;;;;12.17;67.50;99695.09;2155895;80;21316;-77
2021/09/24 06:37:37;;;;;;;16.65;3.02;;;;;;;12.18;67.40;99701.23;2166877;80;21022;-74
2021/09/24 06:40:38;;;;;;;11.57;3.35;;;;;;;12.18;67.47;99697.23;2160422;80;20981;-74
2021/09/24 06:43:40;;;;;;;18.32;3.55;;;;;;;12.19;67.54;99696.22;2157705;80;21537;-75
2021/09/24 06:46:41;;;;;;;14.40;4.00;;;;;;;12.19;67.43;99697.55;2154175;80;21069;-81
2021/09/24 06:49:44;;;;;;;13.62;2.77;;;;;;;12.20;67.56;99700.55;2158757;80;21053;-77
2021/09/24 06:52:47;;;;;;;14.18;3.20;;;;;;;12.21;67.46;99699.52;2161014;80;21612;-81
2021/09/24 06:55:49;;;;;;;17.12;3.55;;;;;;;12.24;67.52;99703.13;2088952;80;21537;-78
2021/09/24 06:58:51;;;;;;;13.15;3.37;;;;;;;12.28;67.64;99709.23;2155847;80;21570;-78
2021/09/24 07:01:53;;;;;;;14.90;3.55;;;;;;;12.34;67.57;99708.98;2161002;80;21417;-82
2021/09/24 07:04:54;;;;;;;20.12;3.67;;;;;;;12.36;67.46;99718.94;2161974;80;21700;-78
2021/09/24 07:07:56;;;;;;;12.28;3.05;;;;;;;12.38;67.43;99718.23;2153360;80;21059;-77
2021/09/24 07:10:57;;;;;;;12.70;2.70;;;;;;;12.42;67.26;99724.84;2148272;80;21037;-77
2021/09/24 07:13:59;;;;;;;21.35;3.55;;;;;;;12.44;67.18;99726.78;2160440;80;21025;-77
2021/09/24 07:17:02;;;;;;;19.77;3.62;;;;;;;12.45;66.96;99730.30;2155894;80;21105;-77
2021/09/24 07:20:06;;;;;;;16.15;3.33;;;;;;;12.46;66.98;99715.45;2160652;80;21116;-78
2021/09/24 07:23:08;;;;;;;12.03;2.92;;;;;;;12.48;67.09;99724.08;2161397;80;21041;-77
2021/09/24 07:26:10;;;;;;;16.40;3.47;;;;;;;12.48;66.60;99739.23;2154240;80;20996;-76
2021/09/24 07:29:11;;;;;;;12.55;3.20;;;;;;;12.44;66.86;99740.59;2160758;80;21009;-76
2021/09/24 07:32:13;;;;;;;13.48;3.08;;;;;;;12.42;66.95;99747.45;2167220;80;21026;-76
2021/09/24 07:35:14;;;;;;;22.45;3.92;;;;;;;12.44;67.18;99746.73;2167780;80;21466;-79
2021/09/24 07:38:18;;;;;;;14.15;3.05;;;;;;;12.46;67.10;99744.72;2161556;80;21028;-80
2021/09/24 07:41:21;;;;;;;9.93;3.25;;;;;;;12.49;67.15;99743.52;2168804;80;20934;-79
2021/09/24 07:44:23;;;;;;;14.73;3.17;;;;;;;12.55;67.14;99738.27;2159229;80;20947;-79
2021/09/24 07:47:25;;;;;;;14.60;3.55;;;;;;;12.62;66.98;99737.53;2147252;80;21025;-78
2021/09/24 07:50:26;;;;;;;14.07;3.35;;;;;;;12.63;66.86;99744.49;2163663;80;20976;-79
2021/09/24 07:53:28;;;;;;;16.02;3.50;;;;;;;12.67;67.34;99746.59;2167936;80;20992;-79
2021/09/24 07:56:30;;;;;;;13.58;3.50;;;;;;;12.72;67.30;99746.02;2156186;80;20961;-77
2021/09/24 07:59:31;;;;;;;19.85;3.80;;;;;;;12.75;67.33;99751.80;2162320;80;21041;-78
2021/09/24 08:02:33;;;;;;;16.15;3.80;;;;;;;12.77;67.32;99750.27;2156752;80;20979;-77
2021/09/24 08:05:35;;;;;;;17.42;3.98;;;;;;;12.78;67.51;99760.73;2158165;80;21020;-77
2021/09/24 08:08:36;;;;;;;15.18;4.22;;;;;;;12.79;67.28;99759.71;2160669;80;21060;-77
2021/09/24 08:11:38;;;;;;;12.93;3.52;;;;;;;12.83;67.41;99754.83;2155342;80;21045;-76
2021/09/24 08:14:39;;;;;;;16.20;3.87;;;;;;;12.86;67.47;99762.42;2158284;80;21816;-77
2021/09/24 08:17:41;;;;;;;18.30;3.85;;;;;;;12.87;67.49;99764.09;2157658;80;21484;-76
2021/09/24 08:20:45;;;;;;;16.70;3.70;;;;;;;12.91;67.47;99766.68;2156372;80;21549;-77
2021/09/24 08:23:47;;;;;;;13.28;3.62;;;;;;;12.94;67.22;99763.63;2154881;80;20964;-77
2021/09/24 08:26:48;;;;;;;18.77;3.83;;;;;;;12.95;67.38;99778.62;2154556;80;21599;-80
2021/09/24 08:29:50;;;;;;;16.10;3.22;;;;;;;12.97;67.28;99783.22;2154277;80;21058;-77
2021/09/24 08:32:53;;;;;;;16.25;3.60;;;;;;;13.04;67.38;99787.30;2156568;80;21076;-80
2021/09/24 08:35:54;;;;;;;17.77;4.28;;;;;;;13.08;67.42;99786.41;2158019;80;21469;-78
2021/09/24 08:38:56;;;;;;;16.65;3.67;;;;;;;13.15;67.44;99789.94;2158585;80;20995;-75
2021/09/24 08:41:57;;;;;;;17.42;4.35;;;;;;;13.24;67.39;99790.14;2159246;80;21077;-76
2021/09/24 08:44:59;;;;;;;16.25;3.47;;;;;;;13.32;66.98;99778.53;2155384;80;21561;-76
2021/09/24 08:48:06;;;;;;;15.93;3.67;;;;;;;13.43;67.25;99788.18;2155880;80;21093;-76
2021/09/24 08:51:08;;;;;;;9.58;3.33;;;;;;;13.56;67.08;99797.28;2149057;80;21024;-76
2021/09/24 08:54:10;;;;;;;14.35;3.12;;;;;;;13.62;66.62;99798.66;2160833;80;21021;-76
2021/09/24 08:57:17;;;;;;;19.75;3.90;;;;;;;13.60;66.28;99793.20;2155528;80;20971;-76
2021/09/24 09:00:20;;;;;;;12.07;3.90;;;;;;;13.55;66.42;99805.80;2164506;80;20988;-76
2021/09/24 09:03:22;;;;;;;18.82;3.70;;;;;;;13.49;66.33;99812.39;2155634;80;21522;-76
2021/09/24 09:06:28;;;;;;;14.98;3.67;;;;;;;13.51;66.32;99809.03;2155047;80;20978;-76
2021/09/24 09:09:39;;;;;;;11.08;3.62;;;;;;;13.55;66.41;99807.64;2160663;80;21623;-76
2021/09/24 09:12:40;;;;;;;12.53;3.42;;;;;;;13.58;66.26;99820.58;2158542;80;21009;-76
2021/09/24 09:15:52;;;;;;;15.70;4.05;;;;;;;13.62;66.28;99820.49;2158254;80;21510;-76
2021/09/24 09:19:16;;;;;;;11.40;3.40;;;;;;;13.72;66.10;99833.50;2163408;80;21547;-75
2021/09/24 09:22:22;;;;;;;16.05;4.20;;;;;;;13.75;66.01;99821.93;2150864;80;21069;-76
2021/09/24 09:25:34;;;;;;;11.48;3.20;;;;;;;13.90;66.21;99819.97;2157441;80;21684;-76
2021/09/24 09:28:49;;;;;;;10.70;3.45;;;;;;;14.02;65.65;99824.75;2161419;80;21074;-76
2021/09/24 09:32:02;;;;;;;13.53;3.10;;;;;;;14.16;65.22;99823.81;2154783;80;21511;-75
2021/09/24 09:35:06;;;;;;;16.32;3.37;;;;;;;14.18;64.98;99822.30;2156554;80;20947;-76
2021/09/24 09:38:27;;;;;;;17.27;3.77;;;;;;;14.19;64.73;99818.11;2161457;80;20950;-80
2021/09/24 09:41:31;;;;;;;15.18;3.45;;;;;;;14.17;64.99;99835.33;2156007;80;21063;-77
2021/09/24 09:44:33;;;;;;;14.78;3.52;;;;;;;14.20;65.15;99826.41;2161256;80;20954;-80
2021/09/24 09:47:39;;;;;;;14.30;3.55;;;;;;;14.18;64.94;99836.97;2160638;80;21040;-81
2021/09/24 09:50:41;;;;;;;18.57;5.70;;;;;;;14.17;64.95;99834.00;2159830;80;21026;-81
2021/09/24 09:53:48;;;;;;;14.15;4.15;;;;;;;14.17;64.62;99846.82;2159315;80;20971;-78
2021/09/24 09:56:50;;;;;;;17.42;3.10;;;;;;;14.21;64.52;99838.72;2156435;80;21065;-79
2021/09/24 09:59:54;;;;;;;17.62;4.53;;;;;;;14.37;64.77;99835.42;2156824;80;21041;-78
2021/09/24 10:03:09;;;;;;;20.27;4.05;;;;;;;14.48;64.37;99850.36;2159340;80;21020;-79
2021/09/24 10:06:27;;;;;;;16.35;3.90;;;;;;;14.49;63.99;99857.86;2162566;80;21095;-78
2021/09/24 10:09:31;;;;;;;15.28;3.67;;;;;;;14.50;64.03;99863.50;2160221;80;21036;-79
2021/09/24 10:12:32;;;;;;;12.28;3.60;;;;;;;14.62;63.92;99859.28;2160440;80;20967;-77
2021/09/24 10:15:33;;;;;;;13.05;3.42;;;;;;;14.71;63.60;99850.59;2160019;80;21033;-77
2021/09/24 10:18:35;;;;;;;21.05;4.12;;;;;;;14.85;64.10;99846.11;2157044;80;21449;-78
2021/09/24 10:21:37;;;;;;;13.80;3.22;;;;;;;14.91;63.30;99858.66;2087339;83;21621;-78
2021/09/24 10:24:41;;;;;;;18.32;3.62;;;;;;;14.90;62.37;99862.38;2114935;83;20967;-78
2021/09/24 10:27:45;;;;;;;14.58;3.87;;;;;;;14.79;62.79;99859.77;2084610;83;21015;-77
2021/09/24 10:30:47;;;;;;;15.45;3.12;;;;;;;14.76;62.87;99866.84;2073367;83;21008;-77
2021/09/24 10:33:55;;;;;;;18.73;3.80;;;;;;;14.76;63.07;99878.34;2090729;83;21001;-78
2021/09/24 10:36:59;;;;;;;14.73;3.58;;;;;;;14.77;62.96;99875.16;2090563;83;21074;-79
2021/09/24 10:40:26;;;;;;;16.05;3.65;;;;;;;14.84;62.65;99868.00;2053009;83;21083;-78
2021/09/24 10:43:43;;;;;;;17.20;4.30;;;;;;;14.83;62.31;99878.87;2090687;83;21082;-79
2021/09/24 10:46:46;;;;;;;14.00;3.87;;;;;;;14.93;62.25;99870.80;2089651;83;21055;-79
2021/09/24 10:49:48;;;;;;;15.40;3.60;;;;;;;14.97;61.81;99869.35;2092057;83;21021;-78
2021/09/24 10:53:18;;;;;;;14.20;4.40;;;;;;;15.23;61.53;99861.93;2094895;83;21115;-79
2021/09/24 10:56:25;;;;;;;14.63;3.30;;;;;;;15.46;60.83;99865.55;2091290;83;21023;-78
2021/09/24 10:59:33;;;;;;;16.35;4.05;;;;;;;15.52;60.29;99859.08;2080441;83;21040;-79
2021/09/24 11:02:40;;;;;;;13.72;3.87;;;;;;;15.76;60.22;99856.31;2061675;84;21557;-78
2021/09/24 11:06:10;;;;;;;12.70;2.90;;;;;;;15.73;59.21;99860.74;2052032;85;21104;-79
2021/09/24 11:09:15;;;;;;;15.95;3.83;;;;;;;15.52;59.58;99859.08;2060791;84;21044;-79
2021/09/24 11:12:16;;;;;;;15.40;3.37;;;;;;;15.74;59.53;99861.04;2087180;82;21936;-79
2021/09/24 11:15:18;;;;;;;14.03;3.52;;;;;;;15.83;58.62;99845.11;2067847;83;21541;-78
2021/09/24 11:18:53;;;;;;;20.23;3.55;;;;;;;15.87;58.29;99850.34;2064709;84;21108;-80
2021/09/24 11:22:18;;;;;;;14.38;3.22;;;;;;;15.84;58.76;99856.11;2064528;83;21055;-78
2021/09/24 11:25:20;;;;;;;15.25;4.03;;;;;;;15.75;58.04;99858.17;2069932;83;21057;-79
2021/09/24 11:28:35;;;;;;;13.15;3.58;;;;;;;15.63;58.31;99856.61;2065099;84;21085;-78
2021/09/24 11:32:03;;;;;;;11.38;3.25;;;;;;;15.89;57.91;99853.11;2070973;83;21114;-77
2021/09/24 11:35:08;;;;;;;12.78;3.20;;;;;;;15.98;56.72;99847.03;2066957;83;20986;-78
2021/09/24 11:38:22;;;;;;;17.73;3.85;;;;;;;16.21;56.67;99850.58;2069561;83;20998;-77
2021/09/24 11:41:27;;;;;;;17.27;3.85;;;;;;;16.55;56.36;99838.72;2061275;83;21686;-78
2021/09/24 11:44:29;;;;;;;12.00;3.95;;;;;;;16.68;55.05;99833.02;2063473;84;21106;-76
2021/09/24 16:55:09;;;;;;;17.12;3.80;;;;;;;14.78;61.30;99975.12;2226552;78;21181;-79
2021/09/24 16:58:11;;;;;;;12.10;4.10;;;;;;;14.77;61.51;99981.47;2228719;78;21703;-79
2021/09/24 17:01:13;;;;;;;20.77;4.97;;;;;;;14.75;61.55;99980.86;2227275;78;21035;-78
2021/09/24 17:04:14;;;;;;;12.60;5.20;;;;;;;14.73;61.80;99976.73;2228254;78;21442;-77
2021/09/24 17:07:16;;;;;;;16.07;6.20;;;;;;;14.68;62.20;99974.64;2215571;78;21786;-77
2021/09/24 17:10:19;;;;;;;13.55;4.80;;;;;;;14.64;62.33;99980.56;2219469;78;21035;-79
2021/09/24 17:13:20;;;;;;;11.70;4.25;;;;;;;14.60;62.51;99974.80;2227162;78;21031;-77
2021/09/24 17:16:22;;;;;;;14.43;5.83;;;;;;;14.60;62.88;99980.66;2215060;79;21002;-77
2021/09/24 17:19:24;;;;;;;18.48;7.65;;;;;;;14.55;62.94;99983.39;2227525;78;21017;-77
2021/09/24 17:22:25;;;;;;;12.00;5.70;;;;;;;14.53;63.13;99981.96;2226934;78;21502;-76
2021/09/24 17:25:29;;;;;;;14.87;4.58;;;;;;;14.51;63.44;99985.30;2233749;78;21016;-77
2021/09/24 17:28:31;;;;;;;13.88;4.53;;;;;;;14.48;63.79;99987.84;2228524;78;21570;-77
2021/09/24 17:31:33;;;;;;;11.18;4.15;;;;;;;14.44;63.82;99985.75;2234776;78;21015;-76
2021/09/24 17:34:34;;;;;;;17.57;4.58;;;;;;;14.41;64.10;99987.48;2225401;78;21468;-75
2021/09/24 17:37:37;;;;;;;9.30;4.95;;;;;;;14.41;64.31;99990.14;2230538;78;21062;-76
2021/09/24 17:40:39;;;;;;;15.38;6.35;;;;;;;14.40;64.56;99992.52;2225831;78;21075;-76
2021/09/24 17:43:41;;;;;;;16.55;5.47;;;;;;;14.35;64.77;99987.23;2224519;78;21524;-76
2021/09/24 17:46:43;;;;;;;15.05;5.35;;;;;;;14.32;64.96;99991.63;2226378;78;21035;-77
2021/09/24 17:49:45;;;;;;;14.25;4.72;;;;;;;14.28;65.23;99999.72;2225215;79;21493;-75
2021/09/24 17:52:47;;;;;;;16.67;4.40;;;;;;;14.24;65.57;100000.28;2217706;78;21132;-76
2021/09/24 17:55:49;;;;;;;9.63;3.72;;;;;;;14.22;65.54;100000.98;2227480;78;20996;-75
2021/09/24 17:58:50;;;;;;;10.43;4.45;;;;;;;14.21;65.67;100012.17;2233194;78;21010;-75
2021/09/24 18:01:52;;;;;;;10.15;3.45;;;;;;;14.20;65.82;100014.53;2226385;78;21489;-75
2021/09/24 18:04:54;;;;;;;12.00;3.95;;;;;;;14.20;66.11;100021.72;2219902;78;21012;-76
2021/09/24 18:07:56;;;;;;;14.38;4.15;;;;;;;14.19;66.08;100028.05;2233340;78;21011;-76
2021/09/24 18:10:58;;;;;;;11.93;4.37;;;;;;;14.17;66.38;100028.78;2232735;78;21629;-76
2021/09/24 18:14:00;;;;;;;7.55;3.45;;;;;;;14.13;66.59;100024.31;2217975;78;21020;-77
2021/09/24 18:17:04;;;;;;;7.67;3.10;;;;;;;14.10;66.80;100028.70;2236937;78;20987;-78
2021/09/24 18:20:10;;;;;;;6.87;2.87;;;;;;;14.12;66.92;100038.16;2218540;78;21525;-76
2021/09/24 18:23:11;;;;;;;9.88;3.50;;;;;;;14.14;67.00;100039.32;2240223;78;21031;-81
2021/09/24 18:26:13;;;;;;;7.47;3.33;;;;;;;14.18;67.14;100032.57;2189696;80;21012;-78
2021/09/24 18:29:15;;;;;;;10.88;3.70;;;;;;;14.18;67.38;100037.91;2174440;80;20965;-78
2021/09/24 18:32:17;;;;;;;14.83;3.85;;;;;;;14.18;67.30;100039.75;2167211;80;21482;-78
2021/09/24 18:35:18;;;;;;;10.45;4.15;;;;;;;14.19;67.41;100040.06;2169187;81;21203;-78
2021/09/24 18:38:20;;;;;;;10.15;4.03;;;;;;;14.17;67.75;100034.94;2154617;80;21059;-79
2021/09/24 18:41:22;;;;;;;8.65;4.12;;;;;;;14.16;67.72;100045.27;2148904;81;21545;-79
2021/09/24 18:44:23;;;;;;;10.50;3.75;;;;;;;14.16;67.86;100046.61;2168923;81;21002;-77
2021/09/24 18:47:25;;;;;;;8.00;3.42;;;;;;;14.18;68.04;100047.25;2223550;78;21000;-77
2021/09/24 18:50:27;;;;;;;7.05;3.87;;;;;;;14.19;68.13;100052.92;2228071;78;21512;-76
2021/09/24 18:53:31;;;;;;;7.97;3.92;;;;;;;14.18;68.18;100056.59;2224916;78;21009;-78
2021/09/24 18:56:34;;;;;;;10.05;3.80;;;;;;;14.16;68.33;100055.94;2224040;78;20988;-80
2021/09/24 18:59:36;;;;;;;7.28;3.85;;;;;;;14.17;68.38;100056.28;2227006;78;20965;-78
2021/09/24 19:02:38;;;;;;;9.50;3.98;;;;;;;14.18;68.51;100063.25;2219134;78;20989;-79
2021/09/24 19:05:41;;;;;;;10.68;4.05;;;;;;;14.20;68.57;100063.08;2230141;78;21095;-78
2021/09/24 19:08:43;;;;;;;7.75;3.33;;;;;;;14.20;68.60;100062.56;2229648;78;21019;-78
2021/09/24 19:11:46;;;;;;;8.85;3.80;;;;;;;14.21;68.63;100074.87;2214078;79;21038;-77
2021/09/24 19:14:48;;;;;;;9.90;3.87;;;;;;;14.24;68.76;100078.49;2228914;78;21070;-78
2021/09/24 19:17:52;;;;;;;13.58;3.80;;;;;;;14.23;68.77;100078.70;2212537;78;21448;-74
2021/09/24 19:20:56;;;;;;;7.03;4.03;;;;;;;14.25;69.29;100076.68;2211846;79;20999;-78